Terminal Aerodrome Forecast
Issued by NWS Goodland, KS

Home | Current Version | Previous Version | Text Only | Print | Product List | Glossary On
Versions: 1 2 3 4 5 6 7 8 9 10 11 12 13 14
352
FTUS43 KGLD 171128
TAFGLD
TAF
KGLD 171128Z 1712/1812 26009KT P6SM BKN250
     FM172000 28013KT P6SM SCT200
     FM172300 31012KT P6SM BKN250
     FM180200 35016G24KT P6SM BKN150
     FM180600 33026G37KT P6SM BKN030=

USA.gov is the U.S. government's official web portal to all federal, state and local government web resources and services.